< < Back
Terminal Aerodrome Forecast


Current Version              Previous Versions:   1  2  3  4  5  6  7  8  9  

Terminal Aerodrome Forecast

470
FTUS42 KMLB 251733
TAFMCO
TAF
KMCO 251733Z 2518/2618 22014KT P6SM VCTS SCT035CB BKN050 BKN300
     FM260000 23008KT P6SM SCT060 OVC300
     FM260800 23008KT P6SM SCT005 BKN020 OVC100
     FM261500 24013G21KT P6SM VCSH BKN035 OVC100=



Latest METAR

622
SAUS70 KWBC 260800 RRA
MTRMCO
METAR KMCO 260753Z 24006KT 10SM BKN012 OVC250 25/23 A2977 RMK AO2 SLP078
BKN V OVC T02500233


USA.gov is the U.S. government's official web portal to all federal, state and local government web resources and services.